• Join FlightAware (Why Join?)
  • Login
  • US Flag 
02:33PM EDT


 

Airport Tracker/Info


-or-


 

Live Flight TrackerFlight Track Log ✈ N695GH ✈ 08-Jul-2013 ✈ KOAK - KCNO

Flight Track Log - Related Links

Times and Time Zones

All times are in EDT time to prevent confusion due to time zone crossing. See the N695GH flight status page for this flight to view local times or setup timezone preferences in your user account.

Time Position Orientation Groundspeed Altitude Reporting Facility
EDT Latitude Longitude Course Direction KTS MPH feet Rate Location/Type
06:50PM 37.7500 -122.2333 134° Southeast 175 201 1,500  Level Northern Cal TRACON
06:50PM 37.7667 -122.1667 72° East 207 238 2,300 480 Climbing Northern Cal TRACON
06:51PM 37.7667 -122.0833 90° East 224 258 2,500 60 Climbing Northern Cal TRACON
06:52PM 37.7667 -122.0167 90° East 227 261 2,500 420 Level Northern Cal TRACON
06:53PM 37.7667 -121.9333 90° East 212 244 3,400 1,200 Climbing Northern Cal TRACON
06:54PM 37.7333 -121.8833 130° Southeast 210 242 4,900 1,500 Climbing Northern Cal TRACON
06:55PM 37.5910 -122.0498 134° Southeast  Level Estimated
06:55PM 37.7000 -121.8167 122° Southeast 201 231 6,400  Level Northern Cal TRACON
06:56PM 37.6667 -121.7833 142° Southeast 208 239 7,600 1,140 Climbing Northern Cal TRACON
06:57PM 37.6167 -121.7333 142° Southeast 225 259 8,600 1,200 Climbing Northern Cal TRACON
06:58PM 37.5667 -121.6667 133° Southeast 224 258 10,000 900 Climbing Northern Cal TRACON
06:59PM 37.5333 -121.6167 130° Southeast 235 270 10,500 420 Climbing Northern Cal TRACON
07:00PM 37.4833 -121.5500 133° Southeast 256 295 10,900 540 Climbing Northern Cal TRACON
07:01PM 37.4167 -121.5000 149° Southeast 245 282 11,600 900 Climbing Northern Cal TRACON
07:02PM 37.3833 -121.4333 122° Southeast 239 275 12,700 960 Climbing Northern Cal TRACON
07:03PM 37.3669 -121.3881 114° Southeast 232 267 13,300 720 Climbing Oakland Center
07:04PM 37.3267 -121.3203 127° Southeast 236 272 14,000 780 Climbing Oakland Center
07:05PM 37.2792 -121.2375 126° Southeast 243 280 15,000 900 Climbing Oakland Center
07:06PM 37.2394 -121.1689 126° Southeast 244 281 15,900 900 Climbing Oakland Center
07:07PM 37.1900 -121.1108 137° Southeast 243 280 16,900 720 Climbing Oakland Center
07:08PM 37.1383 -121.0553 139° Southeast 244 281 17,400 240 Climbing Oakland Center
07:09PM 37.0833 -120.9833 134° Southeast 265 305 17,500  Climbing Northern Cal TRACON
07:10PM 37.0167 -120.9333 149° Southeast 275 316 17,500  Level Northern Cal TRACON
07:11PM 36.9667 -120.8667 133° Southeast 277 319 17,500  Level Northern Cal TRACON
07:12PM 36.9167 -120.8000 133° Southeast 277 319 17,500 -60 Level Northern Cal TRACON
07:13PM 36.8581 -120.7378 140° Southeast 276 318 17,400 -60 Descending Oakland Center
07:14PM 36.7947 -120.6631 137° Southeast 288 331 17,400  Level Oakland Center
07:15PM 36.7375 -120.6017 139° Southeast 278 320 17,400  Level Oakland Center
07:16PM 36.6819 -120.5342 136° Southeast 293 337 17,400  Level Oakland Center
07:17PM 36.6250 -120.4742 140° Southeast 280 322 17,400  Level Oakland Center
07:18PM 36.5681 -120.4106 138° Southeast 277 319 17,400  Level Oakland Center
07:19PM 36.5142 -120.3461 136° Southeast 269 310 17,400  Level Oakland Center
07:20PM 36.4550 -120.2836 140° Southeast 274 315 17,400  Level Oakland Center
07:21PM 36.3883 -120.2069 137° Southeast 273 314 17,400  Level Oakland Center
07:23PM 36.3322 -120.1456 139° Southeast 270 311 17,400  Level Oakland Center
07:24PM 36.2756 -120.0828 138° Southeast 272 313 17,400  Level Oakland Center
07:25PM 36.2197 -120.0206 138° Southeast 271 312 17,400  Level Oakland Center
07:26PM 36.1631 -119.9583 138° Southeast 271 312 17,400  Level Oakland Center
07:27PM 36.1061 -119.8958 138° Southeast 273 314 17,400  Level Oakland Center
07:28PM 36.0492 -119.8339 139° Southeast 273 314 17,400  Level Oakland Center
07:29PM 35.9933 -119.7742 139° Southeast 267 307 17,400  Level Oakland Center
07:30PM 35.9386 -119.7139 138° Southeast 264 304 17,400  Level Oakland Center
07:31PM 35.8814 -119.6517 139° Southeast 269 310 17,400  Level Oakland Center
07:32PM 35.8133 -119.5767 138° Southeast 271 312 17,400  Level Oakland Center
07:33PM 35.7558 -119.5147 139° Southeast 273 314 17,400  Level Oakland Center
07:34PM 35.6975 -119.4528 139° Southeast 274 315 17,400  Level Oakland Center
07:35PM 35.6389 -119.3903 139° Southeast 276 318 17,400  Level Oakland Center
07:36PM 35.5825 -119.3278 138° Southeast 277 319 17,400  Level Los Angeles Center
07:37PM 35.5142 -119.2533 138° Southeast 274 315 17,400  Level Los Angeles Center
07:38PM 35.4569 -119.1931 139° Southeast 272 313 17,400  Level Los Angeles Center
07:39PM 35.4017 -119.1311 138° Southeast 270 311 17,400  Level Los Angeles Center
07:40PM 35.3436 -119.0694 139° Southeast 273 314 17,400  Level Los Angeles Center
07:41PM 35.2864 -119.0072 138° Southeast 275 316 17,400  Level Los Angeles Center
07:42PM 35.2292 -118.9481 140° Southeast 271 312 17,400  Level Los Angeles Center
07:43PM 35.1731 -118.8886 139° Southeast 269 310 17,400  Level Los Angeles Center
07:44PM 35.1167 -118.8286 139° Southeast 268 308 17,400  Level Los Angeles Center
07:45PM 35.0489 -118.7578 139° Southeast 267 307 17,500  Climbing Los Angeles Center
07:46PM 34.9928 -118.6978 139° Southeast 269 310 17,500  Level Los Angeles Center
07:47PM 34.9367 -118.6381 139° Southeast 269 310 17,500  Level Los Angeles Center
07:48PM 34.8811 -118.5825 141° Southeast 269 310 17,500  Level Los Angeles Center
07:49PM 34.8256 -118.5211 138° Southeast 269 310 17,500 -120 Level Los Angeles Center
07:50PM 34.7628 -118.4556 139° Southeast 266 306 17,300 -540 Descending Los Angeles Center
07:51PM 34.7042 -118.3933 139° Southeast 279 321 16,400 -960 Descending Los Angeles Center
07:52PM 34.6372 -118.3233 139° Southeast 291 335 15,400 -1,080 Descending Los Angeles Center
07:53PM 34.5767 -118.2608 140° Southeast 287 330 14,300 -1,080 Descending Los Angeles Center
07:54PM 34.5178 -118.2000 140° Southeast 279 321 13,300 -1,020 Descending Los Angeles Center
07:55PM 34.4539 -118.1328 139° Southeast 277 319 12,200 -1,020 Descending Los Angeles Center
07:56PM 34.3961 -118.0731 140° Southeast 275 316 11,300 -1,020 Descending Los Angeles Center
07:58PM 34.3319 -118.0056 139° Southeast 276 318 10,100 -840 Descending Los Angeles Center
07:59PM 34.2769 -117.9508 141° Southeast 256 295 9,600 -720 Descending Los Angeles Center
08:00PM 34.2219 -117.9028 144° Southeast 245 282 8,700 -960 Descending Los Angeles Center
08:01PM 34.1681 -117.8558 144° Southeast 239 275 7,700 -1,140 Descending Los Angeles Center
08:02PM 34.1142 -117.8081 144° Southeast 239 275 6,400 -1,500 Descending Los Angeles Center
08:02PM 34.0667 -117.7667 144° Southeast 246 283 5,200 -1,800 Descending Southern California TRACON
08:03PM 34.0167 -117.7167 140° Southeast 241 277 3,400 -1,560 Descending Southern California TRACON
08:04PM 34.0000 -117.6500 107° East 219 252 2,100 -1,080 Descending Southern California TRACON
08:05PM 33.9833 -117.6167 121° Southeast 155 178 1,300 -840 Descending Southern California TRACON
08:08PM 33.9667 -117.6333 292° West  Level FlightAware Approximate
08:15PM 33.9748 -117.6365 292° West  Level Estimated